RBE weather

Ratanakiri Airport
Ratanakiri, Rotanak Kiri, Cambodia

Public forecast

Using degrees Celsius for public forecast. Weather courtesy of forecast.io.

METAR (pilot weather report)

Closest report is Pakse International Airport, 109.6 nm (202.9 km) NW. Retrieved 2019/02/23 10:00 UTC (29 minutes ago):

VLPS 231000Z 18004KT 8000 SCT023 SCT200 34/21 Q1009 NOSIG

TAF (pilot weather forecast)

Closest forecast is Pakse International Airport, 109.6 nm (202.9 km) NW. Retrieved 2019/02/23 06:00 UTC (4 hours ago):

TAF VLPS 230500Z 2306/2406 14008KT 8000 FEW020 FEW200